Ana Sayfa
METAR-TAF:

METAR-TAF

Havaalanları :

Lanseria, Güney Afrika

Enlem: 25-56S, Boylam: 027-56E, yükseklik: 1377 m

Güncel hava durumu gözlemi

Rapor saat 07:00 UTC de 27 dakika önce yapıldı.
Rüzgar değişken yönden 3 kt
Sıcaklık 17°C
Nem 55%
Basınç 1028 hPa
Görüş mesafesi: 9000 m

METAR: FALA 150700Z VRB03KT 9000 NSC 17/08 Q1028 NOSIG

Saat: 09:27 (07:27 UTC)

Tahmin

Rapor saat 03:40 UTC de 3 saat ve 47 dakika önce yapıldı.
Ayın 15'si saat 00 UTC'den ayın 15'si saat 24 UTC'ye kadar geçerli Tahmin
Rüzgar değişken yönden 3 kt
Görüş mesafesi 10 km veya daha fazla
1500 m altında bulut yok ve kümülonimbus yok
Dönüşüyor
ayın 15'si saat 08 UTC'den ayın 15'si saat 10 UTC'ye kadar
Rüzgar kuzeybatıdan 11 kt
Dönüşüyor
ayın 15'si saat 16 UTC'den ayın 15'si saat 18 UTC'ye kadar
Rüzgar değişken yönden 3 kt

TAF: FALA 150340Z 1500/1524 VRB03KT CAVOK TX28/1513Z TN09/1504Z BECMG 1508/1510 31011KT BECMG 1516/1518 VRB03KT

4.000'den fazla havaalanı için hava durumu gözlemleri ve tahminleri (METAR ve TAF raporları).

Kullanılabilir istasyonlar harita üzerinde sarı ve kırmızı noktalarla gösterilir.

İstasyonun adını görmek için fareyi noktanın üzerinde gezdirin.

Sonrasında hava gözlem ve tahminlerini görmek için tıklayın.

Haritayı değiştirmek için: yaklaştırmak için siyah artı işaretli yeşil düğmeye ve uzaklaştırmak için de eksi işaretli düğmeye hızla tıklayın; bitişik haritalar için yeşil okları kullanın.


METAR-TAF: